createdAt,value
2019-03-24T00:00:35.616Z,87.00
2019-03-24T00:03:06.057Z,87.00
2019-03-24T00:05:56.127Z,87.10
2019-03-24T00:08:26.680Z,87.10
2019-03-24T00:10:58.275Z,87.10
2019-03-24T00:13:47.115Z,87.30
2019-03-24T00:16:17.210Z,87.90
2019-03-24T00:18:47.481Z,88.20
2019-03-24T00:21:27.041Z,88.30
2019-03-24T00:23:57.762Z,88.30
2019-03-24T00:26:27.910Z,88.30
2019-03-24T00:28:57.859Z,88.50
2019-03-24T00:31:28.069Z,88.70
2019-03-24T00:33:58.887Z,88.80
2019-03-24T00:36:33.161Z,89.70
2019-03-24T00:39:05.936Z,89.30
2019-03-24T00:41:36.329Z,89.50
2019-03-24T00:44:06.902Z,89.40
2019-03-24T00:46:36.989Z,89.40
2019-03-24T00:49:12.269Z,89.30
2019-03-24T00:51:43.046Z,89.30
2019-03-24T00:54:13.460Z,89.50
2019-03-24T00:56:43.776Z,89.80
2019-03-24T00:59:13.634Z,89.90
2019-03-24T01:01:45.790Z,90.00
2019-03-24T01:04:15.685Z,89.90
2019-03-24T01:06:45.963Z,89.60
2019-03-24T01:09:16.043Z,89.80
2019-03-24T01:11:46.765Z,90.00
2019-03-24T01:14:18.152Z,89.50
2019-03-24T01:16:48.096Z,89.70
2019-03-24T01:19:18.745Z,89.60
2019-03-24T01:21:49.145Z,89.80
2019-03-24T01:24:19.309Z,89.10
2019-03-24T01:26:50.008Z,89.10
2019-03-24T01:29:19.971Z,89.10
2019-03-24T01:31:51.921Z,88.80
2019-03-24T01:34:24.172Z,88.80
2019-03-24T01:36:54.035Z,89.40
2019-03-24T01:39:23.906Z,88.60
2019-03-24T01:41:53.765Z,88.50
2019-03-24T01:44:24.322Z,88.60
2019-03-24T01:47:04.023Z,88.50
2019-03-24T01:49:34.825Z,88.60
2019-03-24T01:52:04.721Z,88.80
2019-03-24T01:54:36.366Z,88.50
2019-03-24T01:57:06.589Z,88.60
2019-03-24T01:59:37.356Z,88.50
2019-03-24T02:02:09.283Z,88.50
2019-03-24T02:04:45.289Z,88.50
2019-03-24T02:07:15.413Z,88.40
2019-03-24T02:09:45.656Z,88.40
2019-03-24T02:12:15.770Z,88.00
2019-03-24T02:14:46.606Z,87.80
2019-03-24T02:17:17.380Z,87.70
2019-03-24T02:19:47.770Z,88.10
2019-03-24T02:22:20.862Z,88.20
2019-03-24T02:24:58.207Z,88.40
2019-03-24T02:27:31.082Z,88.50
2019-03-24T02:30:05.078Z,88.30
2019-03-24T02:32:40.623Z,88.40
2019-03-24T02:35:15.497Z,88.50
2019-03-24T02:38:14.598Z,88.30
2019-03-24T02:40:46.362Z,88.30
2019-03-24T02:43:17.332Z,88.40
2019-03-24T02:45:53.972Z,88.50
2019-03-24T02:48:31.162Z,88.50
2019-03-24T02:51:02.114Z,88.60
2019-03-24T02:53:32.861Z,88.60
2019-03-24T02:56:06.017Z,88.60
2019-03-24T02:58:40.086Z,88.50
2019-03-24T03:01:10.365Z,88.50
2019-03-24T03:03:41.368Z,88.70
2019-03-24T03:06:11.458Z,88.80
2019-03-24T03:08:41.562Z,88.70
2019-03-24T03:11:11.748Z,88.50
2019-03-24T03:13:42.164Z,88.70
2019-03-24T03:16:37.825Z,88.90
2019-03-24T03:18:58.036Z,88.90
2019-03-24T03:21:27.901Z,89.00
2019-03-24T03:24:02.191Z,89.10
2019-03-24T03:26:32.362Z,89.20
2019-03-24T03:29:02.271Z,89.30
2019-03-24T03:31:32.513Z,89.40
2019-03-24T03:34:02.577Z,89.30
2019-03-24T03:36:32.486Z,89.40
2019-03-24T03:39:02.397Z,89.30
2019-03-24T03:41:32.298Z,89.40
2019-03-24T03:44:02.401Z,89.50
2019-03-24T03:46:32.920Z,89.90
2019-03-24T03:49:03.791Z,89.80
2019-03-24T03:51:34.095Z,89.90
2019-03-24T03:54:03.983Z,89.80
2019-03-24T03:56:33.856Z,89.80
2019-03-24T03:59:03.789Z,89.90
2019-03-24T04:01:36.940Z,90.00
2019-03-24T04:04:07.191Z,90.10
2019-03-24T04:06:37.506Z,90.10
2019-03-24T04:09:12.441Z,90.10
2019-03-24T04:11:42.403Z,90.20
2019-03-24T04:14:15.082Z,90.20
2019-03-24T04:16:45.172Z,90.30
2019-03-24T04:19:15.472Z,90.30
2019-03-24T04:21:45.905Z,90.20
2019-03-24T04:24:16.187Z,90.20
2019-03-24T04:26:49.213Z,90.30
2019-03-24T04:29:19.582Z,90.30
2019-03-24T04:31:49.914Z,90.40
2019-03-24T04:34:20.218Z,90.40
2019-03-24T04:36:50.716Z,90.30
2019-03-24T04:39:24.087Z,90.30
2019-03-24T04:41:54.116Z,90.20
2019-03-24T04:44:24.499Z,90.20
2019-03-24T04:46:54.667Z,90.30
2019-03-24T04:49:24.704Z,90.40
2019-03-24T04:51:57.346Z,90.30
2019-03-24T04:54:27.487Z,90.40
2019-03-24T04:56:57.487Z,90.30
2019-03-24T04:59:27.351Z,90.30
2019-03-24T05:01:58.069Z,90.40
2019-03-24T05:04:31.065Z,90.40
2019-03-24T05:07:01.284Z,90.50
2019-03-24T05:09:31.388Z,90.70
2019-03-24T05:12:01.235Z,90.80
2019-03-24T05:14:31.185Z,90.80
2019-03-24T05:17:01.732Z,90.70
2019-03-24T05:19:34.493Z,90.80
2019-03-24T05:22:05.679Z,90.90
2019-03-24T05:24:35.514Z,91.00
2019-03-24T05:27:05.569Z,91.10
2019-03-24T05:29:36.007Z,91.10
2019-03-24T05:32:06.113Z,91.20
2019-03-24T05:34:36.458Z,91.50
2019-03-24T05:37:06.342Z,91.60
2019-03-24T05:39:36.547Z,91.70
2019-03-24T05:42:06.725Z,91.70
2019-03-24T05:44:36.659Z,91.90
2019-03-24T05:47:06.626Z,92.00
2019-03-24T05:49:37.968Z,92.10
2019-03-24T05:52:08.112Z,92.20
2019-03-24T05:54:38.453Z,92.30
2019-03-24T05:57:08.681Z,92.30
2019-03-24T05:59:38.556Z,92.40
2019-03-24T06:02:08.450Z,92.50
2019-03-24T06:04:38.394Z,92.60
2019-03-24T06:07:08.368Z,92.60
2019-03-24T06:09:38.500Z,92.80
2019-03-24T06:12:08.479Z,92.80
2019-03-24T06:14:38.622Z,93.00
2019-03-24T06:17:08.829Z,93.10
2019-03-24T06:19:38.673Z,93.10
2019-03-24T06:22:09.359Z,93.20
2019-03-24T06:24:39.191Z,93.20
2019-03-24T06:27:09.516Z,93.10
2019-03-24T06:29:39.440Z,93.10
2019-03-24T06:32:09.556Z,93.20
2019-03-24T06:34:39.772Z,93.30
2019-03-24T06:37:09.622Z,93.50
2019-03-24T06:39:39.511Z,93.40
2019-03-24T06:42:09.340Z,93.50
2019-03-24T06:44:39.693Z,93.50
2019-03-24T06:47:09.678Z,93.50
2019-03-24T06:49:40.227Z,93.50
2019-03-24T06:52:10.116Z,93.60
2019-03-24T06:54:40.254Z,93.50
2019-03-24T06:57:10.162Z,93.50
2019-03-24T06:59:40.015Z,93.60
2019-03-24T07:02:09.819Z,93.50
2019-03-24T07:04:39.838Z,93.30
2019-03-24T07:07:10.056Z,93.20
2019-03-24T07:09:39.912Z,93.20
2019-03-24T07:12:09.738Z,93.00
2019-03-24T07:14:39.691Z,92.90
2019-03-24T07:17:09.598Z,92.80
2019-03-24T07:19:39.892Z,92.70
2019-03-24T07:22:09.782Z,92.60
2019-03-24T07:24:40.032Z,92.30
2019-03-24T07:27:09.920Z,92.30
2019-03-24T07:29:41.238Z,92.20
2019-03-24T07:32:11.397Z,92.10
2019-03-24T07:34:41.369Z,91.80
2019-03-24T07:37:11.264Z,91.70
2019-03-24T07:39:41.163Z,91.40
2019-03-24T07:42:10.983Z,91.30
2019-03-24T07:44:41.255Z,91.00
2019-03-24T07:47:14.552Z,90.90
2019-03-24T07:49:44.702Z,90.90
2019-03-24T07:52:14.795Z,90.90
2019-03-24T07:54:44.695Z,90.60
2019-03-24T07:57:14.939Z,90.30
2019-03-24T07:59:45.056Z,89.20
2019-03-24T08:02:14.923Z,88.50
2019-03-24T08:04:44.885Z,90.40
2019-03-24T08:07:14.728Z,87.20
2019-03-24T08:09:44.655Z,86.40
2019-03-24T08:12:14.947Z,86.40
2019-03-24T08:14:45.118Z,86.00
2019-03-24T08:17:15.248Z,85.60
2019-03-24T08:19:45.119Z,84.60
2019-03-24T08:22:14.936Z,85.10
2019-03-24T08:24:45.150Z,86.00
2019-03-24T08:27:15.360Z,85.70
2019-03-24T08:29:45.647Z,86.00
2019-03-24T08:32:16.418Z,84.90
2019-03-24T08:34:48.452Z,85.20
2019-03-24T08:37:18.148Z,83.50
2019-03-24T08:39:48.236Z,83.40
2019-03-24T08:42:18.412Z,83.60
2019-03-24T08:44:50.091Z,82.50
2019-03-24T08:47:20.278Z,81.70
2019-03-24T08:49:50.616Z,80.80
2019-03-24T08:52:20.830Z,80.90
2019-03-24T08:54:50.995Z,80.20
2019-03-24T08:57:20.875Z,79.70
2019-03-24T08:59:50.687Z,79.20
2019-03-24T09:02:21.631Z,78.50
2019-03-24T09:04:52.944Z,78.80
2019-03-24T09:07:22.800Z,78.80
2019-03-24T09:09:52.719Z,78.80
2019-03-24T09:12:22.824Z,79.30
2019-03-24T09:14:52.863Z,79.10
2019-03-24T09:17:22.851Z,78.90
2019-03-24T09:19:52.719Z,80.20
2019-03-24T09:22:22.541Z,80.60
2019-03-24T09:24:52.612Z,80.30
2019-03-24T09:27:22.500Z,80.40
2019-03-24T09:29:52.339Z,80.00
2019-03-24T09:32:22.592Z,79.30
2019-03-24T09:34:52.935Z,78.50
2019-03-24T09:37:22.917Z,79.00
2019-03-24T09:39:52.766Z,79.10
2019-03-24T09:42:22.600Z,78.50
2019-03-24T09:44:52.539Z,77.90
2019-03-24T09:47:22.548Z,77.30
2019-03-24T09:49:52.516Z,77.40
2019-03-24T09:52:22.339Z,76.00
2019-03-24T09:54:52.221Z,74.80
2019-03-24T09:57:22.082Z,74.20
2019-03-24T09:59:52.235Z,75.00
2019-03-24T10:02:22.186Z,75.70
2019-03-24T10:04:52.077Z,75.10
2019-03-24T10:07:21.994Z,75.40
2019-03-24T10:09:51.926Z,76.30
2019-03-24T10:12:22.117Z,76.40
2019-03-24T10:14:52.103Z,75.90
2019-03-24T10:17:21.904Z,73.90
2019-03-24T10:19:52.355Z,73.00
2019-03-24T10:22:22.202Z,73.30
2019-03-24T10:24:52.059Z,73.80
2019-03-24T10:27:22.612Z,73.50
2019-03-24T10:29:52.459Z,72.90
2019-03-24T10:32:22.266Z,71.70
2019-03-24T10:34:52.111Z,70.70
2019-03-24T10:37:22.476Z,69.70
2019-03-24T10:39:52.311Z,69.80
2019-03-24T10:42:22.212Z,69.30
2019-03-24T10:44:52.540Z,68.40
2019-03-24T10:47:22.416Z,67.80
2019-03-24T10:49:52.280Z,66.90
2019-03-24T10:52:22.258Z,66.30
2019-03-24T10:54:52.092Z,66.10
2019-03-24T10:57:21.913Z,65.90
2019-03-24T10:59:51.751Z,64.40
2019-03-24T11:02:21.909Z,65.10
2019-03-24T11:04:51.756Z,64.50
2019-03-24T11:07:21.622Z,63.50
2019-03-24T11:09:51.489Z,62.50
2019-03-24T11:12:21.563Z,61.40
2019-03-24T11:14:51.811Z,61.20
2019-03-24T11:17:21.766Z,61.00
2019-03-24T11:19:51.618Z,61.10
2019-03-24T11:22:21.439Z,60.60
2019-03-24T11:24:51.252Z,59.30
2019-03-24T11:27:21.112Z,60.00
2019-03-24T11:29:51.182Z,60.00
2019-03-24T11:32:21.018Z,59.30
2019-03-24T11:34:50.871Z,58.50
2019-03-24T11:37:20.789Z,58.20
2019-03-24T11:39:50.935Z,58.00
2019-03-24T11:42:20.819Z,57.70
2019-03-24T11:44:51.393Z,57.10
2019-03-24T11:47:26.519Z,57.50
2019-03-24T11:49:52.778Z,57.10
2019-03-24T11:52:22.578Z,57.20
2019-03-24T11:54:52.437Z,55.90
2019-03-24T11:57:22.713Z,55.40
2019-03-24T11:59:52.807Z,55.40
2019-03-24T12:02:22.630Z,54.80
2019-03-24T12:04:52.515Z,54.70
2019-03-24T12:07:23.452Z,53.70
2019-03-24T12:09:53.294Z,53.10
2019-03-24T12:12:23.164Z,52.70
2019-03-24T12:14:53.430Z,52.00
2019-03-24T12:17:23.422Z,50.70
2019-03-24T12:19:57.108Z,49.50
2019-03-24T12:22:24.845Z,49.50
2019-03-24T12:24:55.729Z,48.90
2019-03-24T12:27:25.670Z,49.00
2019-03-24T12:29:55.499Z,48.90
2019-03-24T12:32:26.361Z,50.50
2019-03-24T12:34:56.856Z,51.30
2019-03-24T12:37:26.684Z,51.70
2019-03-24T12:39:58.074Z,50.30
2019-03-24T12:42:28.174Z,51.20
2019-03-24T12:44:58.187Z,52.30
2019-03-24T12:47:28.027Z,52.90
2019-03-24T12:50:08.326Z,53.10
2019-03-24T12:52:29.476Z,52.70
2019-03-24T12:54:59.763Z,53.10
2019-03-24T12:57:29.627Z,51.60
2019-03-24T13:00:01.713Z,51.70
2019-03-24T13:02:31.681Z,52.10
2019-03-24T13:05:01.868Z,51.50
2019-03-24T13:07:32.086Z,51.80
2019-03-24T13:10:02.200Z,52.10
2019-03-24T13:12:32.428Z,52.10
2019-03-24T13:15:02.276Z,51.20
2019-03-24T13:17:32.111Z,50.70
2019-03-24T13:20:02.584Z,50.50
2019-03-24T13:22:32.442Z,50.30
2019-03-24T13:25:02.296Z,49.60
2019-03-24T13:27:32.416Z,48.90
2019-03-24T13:30:02.745Z,48.70
2019-03-24T13:32:32.671Z,47.70
2019-03-24T13:35:02.698Z,46.50
2019-03-24T13:37:32.905Z,46.00
2019-03-24T13:40:02.820Z,45.80
2019-03-24T13:42:33.555Z,44.50
2019-03-24T13:45:03.394Z,43.20
2019-03-24T13:47:33.568Z,43.10
2019-03-24T13:50:03.393Z,42.50
2019-03-24T13:52:33.591Z,44.90
2019-03-24T13:55:03.447Z,46.00
2019-03-24T13:57:33.306Z,44.90
2019-03-24T14:00:10.797Z,44.00
2019-03-24T14:02:40.611Z,43.50
2019-03-24T14:05:10.872Z,42.60
2019-03-24T14:07:40.813Z,41.90
2019-03-24T14:10:11.072Z,42.80
2019-03-24T14:12:41.262Z,43.30
2019-03-24T14:15:11.470Z,44.10
2019-03-24T14:17:43.335Z,45.10
2019-03-24T14:20:13.946Z,44.30
2019-03-24T14:22:43.801Z,44.60
2019-03-24T14:25:14.185Z,45.40
2019-03-24T14:27:44.054Z,45.50
2019-03-24T14:30:14.568Z,46.00
2019-03-24T14:32:44.609Z,46.30
2019-03-24T14:35:14.490Z,45.70
2019-03-24T14:37:45.755Z,45.60
2019-03-24T14:40:15.978Z,45.20
2019-03-24T14:42:56.472Z,45.00
2019-03-24T14:45:26.605Z,44.20
2019-03-24T14:47:56.782Z,44.30
2019-03-24T14:50:26.594Z,44.70
2019-03-24T14:52:56.687Z,44.00
2019-03-24T14:55:26.749Z,43.30
2019-03-24T14:57:56.781Z,43.30
2019-03-24T15:00:35.714Z,43.40
2019-03-24T15:03:06.519Z,43.10
2019-03-24T15:05:36.632Z,42.50
2019-03-24T15:08:07.330Z,41.90
2019-03-24T15:10:37.475Z,41.80
2019-03-24T15:13:07.733Z,40.50
2019-03-24T15:15:37.822Z,40.60
2019-03-24T15:18:07.686Z,39.50
2019-03-24T15:20:37.508Z,39.30
2019-03-24T15:23:07.472Z,38.80
2019-03-24T15:25:37.358Z,37.90
2019-03-24T15:28:07.507Z,38.20
2019-03-24T15:30:39.061Z,37.80
2019-03-24T15:33:08.985Z,38.10
2019-03-24T15:35:38.936Z,37.50
2019-03-24T15:38:09.189Z,37.10
2019-03-24T15:40:39.184Z,38.40
2019-03-24T15:43:09.346Z,37.80
2019-03-24T15:45:39.571Z,37.20
2019-03-24T15:48:11.216Z,36.90
2019-03-24T15:50:41.203Z,35.60
2019-03-24T15:53:11.035Z,34.30
2019-03-24T15:55:41.738Z,33.70
2019-03-24T15:58:11.912Z,34.10
2019-03-24T16:00:43.512Z,32.30
2019-03-24T16:03:13.375Z,32.70
2019-03-24T16:05:43.345Z,33.30
2019-03-24T16:08:13.527Z,32.70
2019-03-24T16:10:43.344Z,31.40
2019-03-24T16:13:13.767Z,32.30
2019-03-24T16:15:43.893Z,33.40
2019-03-24T16:18:14.246Z,33.30
2019-03-24T16:20:44.231Z,32.30
2019-03-24T16:23:15.776Z,31.40
2019-03-24T16:25:46.272Z,32.60
2019-03-24T16:28:16.275Z,31.90
2019-03-24T16:30:46.356Z,33.00
2019-03-24T16:33:16.519Z,34.40
2019-03-24T16:35:46.650Z,35.20
2019-03-24T16:38:16.906Z,35.10
2019-03-24T16:40:47.735Z,35.50
2019-03-24T16:43:17.755Z,36.10
2019-03-24T16:45:47.724Z,37.20
2019-03-24T16:48:17.648Z,37.40
2019-03-24T16:50:48.007Z,37.00
2019-03-24T16:53:18.562Z,36.80
2019-03-24T16:55:51.916Z,37.20
2019-03-24T16:58:22.189Z,37.60
2019-03-24T17:00:53.270Z,37.80
2019-03-24T17:03:23.569Z,38.60
2019-03-24T17:05:53.867Z,38.50
2019-03-24T17:08:23.804Z,39.00
2019-03-24T17:10:53.683Z,38.30
2019-03-24T17:13:23.563Z,37.70
2019-03-24T17:15:55.216Z,39.00
2019-03-24T17:18:28.211Z,38.80
2019-03-24T17:20:58.126Z,38.00
2019-03-24T17:23:28.536Z,38.20
2019-03-24T17:26:00.783Z,38.70
2019-03-24T17:28:33.053Z,39.10
2019-03-24T17:31:02.966Z,38.60
2019-03-24T17:33:32.897Z,39.40
2019-03-24T17:36:02.783Z,39.60
2019-03-24T17:38:32.798Z,39.20
2019-03-24T17:41:03.007Z,39.40
2019-03-24T17:43:33.138Z,39.50
2019-03-24T17:46:03.299Z,39.40
2019-03-24T17:48:33.479Z,39.90
2019-03-24T17:51:03.656Z,40.60
2019-03-24T17:53:34.173Z,40.30
2019-03-24T17:56:04.078Z,41.20
2019-03-24T17:58:34.203Z,41.50
2019-03-24T18:01:04.945Z,42.20
2019-03-24T18:03:38.475Z,42.20
2019-03-24T18:06:08.989Z,42.90
2019-03-24T18:08:41.091Z,42.60
2019-03-24T18:11:11.004Z,43.50
2019-03-24T18:13:43.519Z,43.70
2019-03-24T18:16:13.336Z,43.60
2019-03-24T18:18:43.337Z,43.80
2019-03-24T18:21:13.159Z,44.20
2019-03-24T18:23:43.434Z,44.30
2019-03-24T18:26:13.562Z,44.40
2019-03-24T18:28:43.424Z,44.40
2019-03-24T18:31:16.120Z,44.70
2019-03-24T18:33:46.010Z,45.00
2019-03-24T18:36:15.909Z,45.30
2019-03-24T18:38:45.952Z,45.70
2019-03-24T18:41:15.824Z,45.90
2019-03-24T18:43:46.802Z,46.20
2019-03-24T18:46:17.090Z,46.50
2019-03-24T18:48:47.200Z,46.80
2019-03-24T18:51:17.286Z,47.10
2019-03-24T18:53:47.167Z,47.50
2019-03-24T18:56:18.027Z,47.60
2019-03-24T18:58:47.912Z,47.90
2019-03-24T19:01:18.050Z,48.00
2019-03-24T19:03:48.294Z,48.30
2019-03-24T19:06:18.402Z,48.60
2019-03-24T19:08:48.264Z,48.80
2019-03-24T19:11:18.109Z,49.20
2019-03-24T19:13:48.703Z,49.30
2019-03-24T19:16:18.631Z,49.60
2019-03-24T19:18:48.776Z,49.60
2019-03-24T19:21:18.755Z,49.80
2019-03-24T19:23:48.953Z,50.10
2019-03-24T19:26:18.792Z,50.20
2019-03-24T19:28:48.635Z,50.40
2019-03-24T19:31:18.850Z,50.50
2019-03-24T19:33:48.975Z,50.70
2019-03-24T19:36:19.061Z,50.90
2019-03-24T19:38:49.428Z,51.20
2019-03-24T19:41:19.708Z,51.30
2019-03-24T19:43:50.169Z,51.40
2019-03-24T19:46:20.325Z,51.70
2019-03-24T19:48:50.207Z,52.10
2019-03-24T19:51:20.450Z,52.80
2019-03-24T19:53:50.335Z,53.20
2019-03-24T19:56:20.611Z,54.00
2019-03-24T19:58:50.624Z,54.80
2019-03-24T20:01:20.770Z,55.60
2019-03-24T20:03:51.132Z,55.90
2019-03-24T20:06:21.278Z,56.50
2019-03-24T20:08:51.212Z,56.70
2019-03-24T20:11:21.417Z,57.00
2019-03-24T20:13:51.253Z,57.10
2019-03-24T20:16:21.474Z,57.10
2019-03-24T20:18:51.348Z,57.30
2019-03-24T20:21:21.730Z,57.40
2019-03-24T20:23:54.344Z,57.60
2019-03-24T20:26:24.481Z,57.70
2019-03-24T20:28:54.844Z,57.90
2019-03-24T20:31:25.058Z,58.00
2019-03-24T20:33:54.950Z,58.20
2019-03-24T20:36:24.827Z,58.30
2019-03-24T20:38:55.450Z,58.50
2019-03-24T20:41:25.736Z,58.80
2019-03-24T20:43:55.887Z,59.00
2019-03-24T20:46:26.040Z,59.30
2019-03-24T20:48:56.006Z,59.80
2019-03-24T20:51:25.973Z,60.10
2019-03-24T20:53:55.915Z,60.30
2019-03-24T20:56:25.859Z,60.60
2019-03-24T20:58:56.225Z,61.00
2019-03-24T21:01:26.163Z,61.20
2019-03-24T21:03:56.045Z,61.70
2019-03-24T21:06:26.176Z,62.00
2019-03-24T21:08:56.328Z,62.10
2019-03-24T21:11:26.279Z,62.60
2019-03-24T21:13:56.123Z,62.70
2019-03-24T21:16:26.009Z,63.00
2019-03-24T21:18:56.576Z,63.30
2019-03-24T21:21:26.605Z,63.60
2019-03-24T21:23:56.532Z,64.10
2019-03-24T21:26:26.424Z,64.50
2019-03-24T21:28:56.318Z,65.00
2019-03-24T21:31:27.228Z,65.30
2019-03-24T21:33:57.932Z,65.70
2019-03-24T21:36:28.130Z,66.10
2019-03-24T21:38:58.299Z,66.40
2019-03-24T21:41:28.501Z,66.60
2019-03-24T21:43:58.686Z,66.80
2019-03-24T21:46:29.530Z,67.00
2019-03-24T21:48:59.556Z,67.20
2019-03-24T21:51:29.699Z,67.40
2019-03-24T21:53:59.889Z,67.50
2019-03-24T21:56:30.018Z,67.90
2019-03-24T21:59:00.177Z,68.10
2019-03-24T22:01:30.378Z,68.10
2019-03-24T22:04:00.235Z,68.50
2019-03-24T22:06:30.452Z,68.80
2019-03-24T22:09:00.270Z,69.00
2019-03-24T22:11:30.976Z,69.20
2019-03-24T22:14:00.815Z,69.40
2019-03-24T22:16:30.659Z,69.50
2019-03-24T22:19:00.562Z,69.60
2019-03-24T22:21:30.399Z,69.90
2019-03-24T22:24:00.554Z,70.00
2019-03-24T22:26:30.720Z,70.60
2019-03-24T22:29:00.803Z,71.20
2019-03-24T22:31:31.005Z,71.20
2019-03-24T22:34:00.892Z,71.50
2019-03-24T22:36:30.719Z,71.50
2019-03-24T22:39:00.626Z,71.80
2019-03-24T22:41:30.742Z,71.90
2019-03-24T22:44:00.901Z,71.80
2019-03-24T22:46:30.817Z,72.00
2019-03-24T22:49:00.671Z,71.90
2019-03-24T22:51:30.885Z,72.00
2019-03-24T22:54:03.443Z,72.10
2019-03-24T22:56:33.832Z,72.30
2019-03-24T22:59:04.001Z,73.20
2019-03-24T23:01:34.079Z,72.60
2019-03-24T23:04:04.129Z,72.60
2019-03-24T23:06:34.282Z,72.80
2019-03-24T23:09:05.988Z,72.50
2019-03-24T23:11:35.831Z,72.60
2019-03-24T23:14:05.847Z,72.70
2019-03-24T23:16:35.770Z,73.00
2019-03-24T23:19:05.883Z,73.30
2019-03-24T23:21:35.779Z,73.70
2019-03-24T23:24:14.808Z,74.10
2019-03-24T23:26:39.298Z,74.70
2019-03-24T23:29:09.499Z,75.00
2019-03-24T23:31:39.647Z,75.10
2019-03-24T23:34:09.752Z,75.20
2019-03-24T23:36:39.960Z,75.20
2019-03-24T23:39:11.120Z,75.20
2019-03-24T23:41:40.980Z,75.30
2019-03-24T23:44:10.855Z,75.10
2019-03-24T23:46:40.781Z,75.00
2019-03-24T23:49:10.724Z,74.80
2019-03-24T23:51:41.108Z,74.80
2019-03-24T23:54:10.950Z,74.80
2019-03-24T23:56:41.123Z,74.70
2019-03-24T23:59:11.238Z,74.40
